ADDS METAR Data INFO
IDs: Format: Raw Decoded Include TAF

Data at: 1852 UTC 16 Dec 2017

KFMN 161753Z 11006KT 10SM CLR 02/M09 A2985 RMK AO2 SLP131 T00171094 10017 21094 57019 $
KFMN 161653Z 09005KT 10SM CLR M03/M11 A2987 RMK AO2 SLP151 T10331111 $
KFMN 161553Z 09008KT 10SM CLR M06/M12 A2989 RMK AO2 SLP160 T10561122 $
KFMN 161453Z 09005KT 10SM CLR M08/M14 A2991 RMK AO2 SLP169 T10781139 55010 $
KFMN 161353Z 10009KT 10SM CLR M08/M13 A2991 RMK AO2 SLP169 T10831133 $
KFMN 161253Z 09007KT 10SM CLR M08/M14 A2994 RMK AO2 SLP163 T10781144 $
KFMN 161153Z AUTO 09008KT 10SM CLR M08/M14 A2995 RMK AO2 SLP167 T10781139 11056 21106 58023 $
KFMN 161053Z AUTO 08006KT 10SM CLR M08/M13 A2999 RMK AO2 SLP176 T10831133 $
KFMN 160953Z AUTO 08007KT 10SM CLR M10/M14 A3002 RMK AO2 SLP189 T11001144 $
KFMN 160853Z AUTO 08004KT 10SM CLR M08/M13 A3003 RMK AO2 SLP188 T10781133 56018 $
KFMN 160753Z AUTO 09006KT 10SM CLR M08/M14 A3005 RMK AO2 SLP199 T10831139 $
KFMN 160653Z AUTO 09008KT 10SM CLR M06/M13 A3007 RMK AO2 SLP208 T10611128 400721106 $
KFMN 160553Z AUTO 09003KT 10SM CLR M06/M14 A3009 RMK AO2 SLP220 T10611139 10039 21072 56012 $
KFMN 160453Z AUTO 00000KT 10SM CLR M06/M14 A3011 RMK AO2 SLP233 T10611144 $
KFMN 160353Z 03006KT 10SM CLR M06/M15 A3011 RMK AO2 SLP238 T10561150 $
KFMN 160253Z 03004KT 10SM CLR M04/M15 A3013 RMK AO2 SLP248 T10391150 58005 $
KFMN 160153Z 09003KT 10SM CLR M03/M15 A3015 RMK AO2 SLP257 T10281150 $
KFMN 160053Z 00000KT 10SM CLR 03/M14 A3014 RMK AO2 SLP238 T00331139 $
KFMN 152353Z 27006KT 10SM CLR 03/M14 A3015 RMK AO2 SLP239 T00331139 10072 20006 58015
KFMN 152253Z 25006KT 10SM CLR 06/M13 A3017 RMK AO2 SLP239 T00611133
KFMN 152153Z 27006KT 10SM CLR 07/M11 A3019 RMK AO2 SLP244 T00671111
KFMN 152053Z VRB03KT 10SM CLR 07/M09 A3020 RMK AO2 SLP248 T00671094 57038
KFMN 151953Z 19004KT 10SM CLR 04/M08 A3025 RMK AO2 SLP267 T00441083
KFMN 151853Z 18003KT 10SM CLR 03/M09 A3029 RMK AO2 SLP283 T00281094 $
KFMN 151753Z 14004KT 10SM CLR 00/M08 A3034 RMK AO2 SLP304 T00001078 10000 21106 58002 $
KFMN 151653Z 11004KT 10SM CLR M03/M09 A3035 RMK AO2 SLP312 T10281089 $
KFMN 151553Z 10007KT 10SM CLR M05/M09 A3035 RMK AO2 SLP311 T10501094 $
KFMN 151453Z 09007KT 10SM CLR M08/M11 A3034 RMK AO2 SLP308 T10781106 53005
KFMN 151353Z 08006KT 10SM CLR M11/M12 A3033 RMK AO2 SLP308 T11061122
KFMN 151253Z 09006KT 10SM CLR M09/M11 A3032 RMK AO2 SLP298 T10891106 $
KFMN 151153Z AUTO 09005KT 10SM CLR M08/M12 A3033 RMK AO2 SLP295 T10831117 11039 21083 51008 $
KFMN 151053Z AUTO 11006KT 10SM CLR M08/M12 A3031 RMK AO2 SLP285 T10781117 $
KFMN 150953Z AUTO 08004KT 10SM CLR M08/M11 A3031 RMK AO2 SLP283 T10781106 $
KFMN 150853Z AUTO 07003KT 10SM CLR M07/M09 A3030 RMK AO2 SLP279 T10671094 51007 $
KFMN 150753Z AUTO 08005KT 10SM CLR M07/M10 A3029 RMK AO2 SLP277 T10671100 $
KFMN 150653Z AUTO 04004KT 10SM CLR M06/M10 A3029 RMK AO2 SLP275 T10561100 400891067 $